Terminal Aerodrome Forecast
Issued by NWS

Current Version | Previous Version | Text Only | Print | Product List | Glossary On
Versions: 1 2 3 4 5 6 7 8 9 10 11 12 13 14 15 16 17 18 19 20 21 22 23 24 25 26 27 28 29 30 31 32 33 34 35 36 37 38 39 40 41 42 43 44 45 46 47 48 49 50
000
FTUS41 KCTP 232339
TAFLNS
TAF
KLNS 232339Z 2400/2424 13007KT P6SM OVC150
     FM240300 13007KT 6SM -RA BR OVC030 WS009/16032KT
     FM240500 14008KT 2SM -RA BR OVC007 WS020/16042KT
     FM241100 17006KT 3SM -DZ BR OVC007
     FM241600 20010G20KT P6SM SCT035=

USA.gov is the U.S. government's official web portal to all federal, state and local government web resources and services.